createdAt,value
2018-04-30T00:02:29.781Z,55.60
2018-04-30T00:05:01.254Z,55.60
2018-04-30T00:07:32.601Z,55.80
2018-04-30T00:10:03.631Z,55.90
2018-04-30T00:12:35.735Z,56.20
2018-04-30T00:15:07.157Z,56.20
2018-04-30T00:17:39.389Z,56.40
2018-04-30T00:20:10.754Z,56.50
2018-04-30T00:22:42.888Z,56.80
2018-04-30T00:25:14.204Z,56.90
2018-04-30T00:27:45.597Z,56.90
2018-04-30T00:30:16.973Z,56.80
2018-04-30T00:32:49.090Z,57.40
2018-04-30T00:35:21.252Z,57.10
2018-04-30T00:37:52.582Z,57.20
2018-04-30T00:40:24.077Z,57.20
2018-04-30T00:42:55.466Z,57.20
2018-04-30T00:45:27.625Z,57.50
2018-04-30T00:48:00.445Z,57.60
2018-04-30T00:50:31.939Z,57.70
2018-04-30T00:53:03.761Z,57.50
2018-04-30T00:55:34.765Z,57.60
2018-04-30T00:58:06.872Z,57.70
2018-04-30T01:00:37.610Z,57.80
2018-04-30T01:03:09.923Z,57.90
2018-04-30T01:05:41.266Z,57.90
2018-04-30T01:08:12.634Z,57.90
2018-04-30T01:10:44.745Z,58.20
2018-04-30T01:13:16.119Z,58.20
2018-04-30T01:15:47.467Z,58.20
2018-04-30T01:18:18.837Z,58.10
2018-04-30T01:20:50.572Z,58.10
2018-04-30T01:23:22.037Z,58.20
2018-04-30T01:25:53.361Z,58.20
2018-04-30T01:28:24.763Z,58.30
2018-04-30T01:30:56.713Z,58.50
2018-04-30T01:33:28.063Z,58.60
2018-04-30T01:35:59.397Z,58.50
2018-04-30T01:38:31.435Z,58.70
2018-04-30T01:41:02.555Z,58.80
2018-04-30T01:43:34.023Z,58.80
2018-04-30T01:46:05.088Z,58.80
2018-04-30T01:48:36.193Z,58.90
2018-04-30T01:51:07.602Z,58.60
2018-04-30T01:53:39.057Z,58.80
2018-04-30T01:56:10.530Z,58.80
2018-04-30T01:58:41.918Z,59.10
2018-04-30T02:01:13.423Z,59.00
2018-04-30T02:03:44.810Z,59.10
2018-04-30T02:06:16.182Z,59.10
2018-04-30T02:08:47.569Z,59.00
2018-04-30T02:11:18.977Z,59.10
2018-04-30T02:13:50.310Z,59.20
2018-04-30T02:16:22.029Z,59.40
2018-04-30T02:18:53.393Z,59.40
2018-04-30T02:21:25.532Z,59.50
2018-04-30T02:23:56.902Z,59.50
2018-04-30T02:26:29.906Z,59.40
2018-04-30T02:29:02.016Z,59.20
2018-04-30T02:31:33.377Z,59.10
2018-04-30T02:34:05.180Z,59.30
2018-04-30T02:36:37.309Z,59.40
2018-04-30T02:39:09.252Z,59.40
2018-04-30T02:41:40.463Z,59.50
2018-04-30T02:44:11.679Z,59.40
2018-04-30T02:46:43.666Z,59.80
2018-04-30T02:49:15.753Z,59.90
2018-04-30T02:51:46.890Z,60.00
2018-04-30T02:54:18.854Z,60.00
2018-04-30T02:56:50.249Z,59.90
2018-04-30T02:59:22.246Z,60.30
2018-04-30T03:01:53.453Z,60.40
2018-04-30T03:04:24.784Z,60.70
2018-04-30T03:06:56.352Z,60.70
2018-04-30T03:09:27.657Z,60.60
2018-04-30T03:11:58.830Z,61.00
2018-04-30T03:14:30.110Z,61.00
2018-04-30T03:17:01.547Z,60.90
2018-04-30T03:19:32.762Z,61.00
2018-04-30T03:22:03.838Z,61.30
2018-04-30T03:24:36.192Z,61.10
2018-04-30T03:27:07.454Z,61.20
2018-04-30T03:29:38.639Z,60.80
2018-04-30T03:32:10.023Z,60.70
2018-04-30T03:34:41.381Z,61.30
2018-04-30T03:37:13.637Z,60.60
2018-04-30T03:39:45.065Z,60.60
2018-04-30T03:42:16.406Z,60.70
2018-04-30T03:44:47.786Z,60.60
2018-04-30T03:47:19.887Z,60.60
2018-04-30T03:49:51.581Z,60.70
2018-04-30T03:52:23.009Z,61.50
2018-04-30T03:54:54.385Z,60.50
2018-04-30T03:57:25.918Z,60.50
2018-04-30T03:59:57.297Z,61.00
2018-04-30T04:02:46.901Z,61.20
2018-04-30T04:29:58.375Z,59.50
2018-04-30T04:32:29.934Z,59.90
2018-04-30T04:35:01.315Z,60.40
2018-04-30T04:37:32.665Z,61.00
2018-04-30T04:40:03.749Z,61.20
2018-04-30T04:42:36.732Z,61.50
2018-04-30T04:45:08.437Z,61.80
2018-04-30T04:47:39.825Z,61.60
2018-04-30T04:50:11.990Z,62.00
2018-04-30T04:52:43.412Z,61.90
2018-04-30T04:55:14.798Z,61.90
2018-04-30T04:57:46.163Z,61.90
2018-04-30T05:00:18.275Z,61.90
2018-04-30T05:02:49.751Z,61.90
2018-04-30T05:05:21.105Z,62.10
2018-04-30T05:07:52.489Z,62.20
2018-04-30T05:10:24.620Z,62.20
2018-04-30T05:12:56.429Z,62.30
2018-04-30T05:15:28.238Z,62.20
2018-04-30T05:18:00.482Z,62.40
2018-04-30T05:20:32.918Z,62.40
2018-04-30T05:23:05.082Z,62.40
2018-04-30T05:25:37.222Z,63.20
2018-04-30T05:28:08.598Z,62.70
2018-04-30T05:30:40.707Z,62.50
2018-04-30T05:33:12.063Z,62.50
2018-04-30T05:35:43.514Z,62.40
2018-04-30T05:38:16.495Z,62.50
2018-04-30T05:40:48.567Z,62.80
2018-04-30T05:43:21.122Z,62.80
2018-04-30T05:45:53.214Z,62.90
2018-04-30T05:48:24.561Z,62.90
2018-04-30T05:50:55.915Z,62.80
2018-04-30T05:53:27.599Z,62.90
2018-04-30T05:55:58.951Z,63.00
2018-04-30T05:58:30.062Z,63.20
2018-04-30T06:01:01.918Z,63.10
2018-04-30T06:03:34.187Z,62.90
2018-04-30T06:06:05.206Z,62.90
2018-04-30T06:08:37.393Z,62.60
2018-04-30T06:11:09.565Z,62.40
2018-04-30T06:13:41.235Z,62.40
2018-04-30T06:16:13.321Z,62.20
2018-04-30T06:18:44.794Z,62.20
2018-04-30T06:21:16.109Z,62.20
2018-04-30T06:23:47.606Z,62.40
2018-04-30T06:26:19.110Z,62.20
2018-04-30T06:28:50.427Z,63.20
2018-04-30T06:31:23.009Z,62.30
2018-04-30T06:33:54.495Z,62.50
2018-04-30T06:36:25.858Z,62.40
2018-04-30T06:38:57.205Z,62.30
2018-04-30T06:41:28.680Z,62.20
2018-04-30T06:44:00.065Z,62.30
2018-04-30T06:46:31.442Z,62.50
2018-04-30T06:49:02.818Z,62.50
2018-04-30T06:51:35.756Z,62.60
2018-04-30T06:54:07.904Z,62.40
2018-04-30T06:56:40.845Z,62.40
2018-04-30T06:59:12.254Z,62.50
2018-04-30T07:01:43.580Z,62.30
2018-04-30T07:04:15.110Z,63.10
2018-04-30T07:06:46.435Z,62.30
2018-04-30T07:09:17.947Z,62.30
2018-04-30T07:11:49.480Z,62.40
2018-04-30T07:14:21.156Z,62.70
2018-04-30T07:16:54.050Z,62.80
2018-04-30T07:19:26.358Z,62.70
2018-04-30T07:21:57.715Z,62.70
2018-04-30T07:24:29.046Z,62.90
2018-04-30T07:27:01.624Z,62.90
2018-04-30T07:29:33.014Z,62.70
2018-04-30T07:32:04.531Z,62.70
2018-04-30T07:34:36.060Z,62.70
2018-04-30T07:37:08.262Z,62.70
2018-04-30T07:39:39.665Z,62.70
2018-04-30T07:42:11.593Z,62.50
2018-04-30T07:44:42.973Z,62.50
2018-04-30T07:47:14.436Z,62.30
2018-04-30T07:49:47.308Z,62.60
2018-04-30T07:52:18.755Z,63.40
2018-04-30T07:54:50.061Z,62.50
2018-04-30T07:57:22.327Z,62.00
2018-04-30T07:59:54.506Z,62.20
2018-04-30T08:02:25.869Z,62.20
2018-04-30T08:04:57.290Z,62.00
2018-04-30T08:07:30.186Z,61.60
2018-04-30T08:10:01.625Z,61.40
2018-04-30T08:12:32.918Z,61.40
2018-04-30T08:15:03.681Z,60.90
2018-04-30T08:17:35.073Z,61.50
2018-04-30T08:20:06.489Z,61.70
2018-04-30T08:22:38.034Z,62.10
2018-04-30T08:25:10.180Z,61.80
2018-04-30T08:27:41.629Z,62.10
2018-04-30T08:30:13.010Z,62.50
2018-04-30T08:32:44.344Z,62.60
2018-04-30T08:35:15.715Z,61.80
2018-04-30T08:37:47.033Z,61.80
2018-04-30T08:40:18.521Z,61.70
2018-04-30T08:42:49.909Z,62.00
2018-04-30T08:45:22.002Z,61.70
2018-04-30T08:47:53.401Z,61.70
2018-04-30T08:50:24.936Z,61.40
2018-04-30T08:52:57.802Z,60.60
2018-04-30T08:55:30.064Z,60.10
2018-04-30T08:58:01.498Z,60.10
2018-04-30T09:00:32.467Z,60.00
2018-04-30T09:03:03.980Z,60.00
2018-04-30T09:05:35.349Z,59.90
2018-04-30T09:08:06.702Z,60.00
2018-04-30T09:10:38.158Z,59.60
2018-04-30T09:13:09.574Z,59.60
2018-04-30T09:15:40.951Z,59.70
2018-04-30T09:18:11.963Z,59.70
2018-04-30T09:20:43.414Z,59.80
2018-04-30T09:23:14.790Z,59.80
2018-04-30T09:25:46.446Z,59.60
2018-04-30T09:28:17.815Z,59.20
2018-04-30T09:30:49.294Z,59.30
2018-04-30T09:33:20.815Z,59.30
2018-04-30T09:35:52.378Z,59.30
2018-04-30T09:38:23.887Z,59.00
2018-04-30T09:40:55.244Z,59.00
2018-04-30T09:43:26.741Z,59.40
2018-04-30T09:45:58.268Z,59.00
2018-04-30T09:48:33.410Z,58.80
2018-04-30T09:51:05.570Z,58.80
2018-04-30T09:53:37.768Z,58.90
2018-04-30T09:56:09.155Z,58.80
2018-04-30T09:58:41.428Z,59.10
2018-04-30T10:01:12.807Z,58.30
2018-04-30T10:03:44.432Z,57.90
2018-04-30T10:06:15.845Z,57.70
2018-04-30T10:08:47.219Z,57.80
2018-04-30T10:11:18.550Z,57.60
2018-04-30T10:13:50.918Z,56.60
2018-04-30T10:16:22.428Z,56.50
2018-04-30T10:18:54.513Z,56.40
2018-04-30T10:21:25.977Z,56.30
2018-04-30T10:23:57.407Z,56.70
2018-04-30T10:26:28.927Z,57.40
2018-04-30T10:29:01.236Z,56.70
2018-04-30T10:31:33.564Z,56.20
2018-04-30T10:34:05.825Z,54.80
2018-04-30T10:36:37.958Z,55.50
2018-04-30T10:39:09.078Z,55.40
2018-04-30T10:41:41.192Z,55.50
2018-04-30T10:44:12.709Z,55.30
2018-04-30T10:46:44.069Z,53.50
2018-04-30T10:49:15.454Z,52.40
2018-04-30T10:51:46.801Z,52.90
2018-04-30T10:54:18.210Z,52.50
2018-04-30T10:56:49.586Z,52.40
2018-04-30T10:59:20.966Z,50.40
2018-04-30T11:01:52.382Z,50.20
2018-04-30T11:04:23.740Z,50.60
2018-04-30T11:06:55.255Z,49.80
2018-04-30T11:09:26.769Z,48.80
2018-04-30T11:11:58.101Z,49.00
2018-04-30T11:14:30.241Z,49.40
2018-04-30T11:17:01.803Z,49.00
2018-04-30T11:19:33.157Z,49.20
2018-04-30T11:22:04.610Z,49.40
2018-04-30T11:24:35.962Z,49.30
2018-04-30T11:27:07.593Z,49.00
2018-04-30T11:29:40.795Z,49.40
2018-04-30T11:32:13.147Z,49.00
2018-04-30T11:34:45.264Z,49.30
2018-04-30T11:37:16.644Z,49.30
2018-04-30T11:39:48.289Z,49.60
2018-04-30T11:42:19.642Z,49.30
2018-04-30T11:44:51.205Z,49.60
2018-04-30T11:47:23.029Z,50.10
2018-04-30T11:49:54.254Z,49.60
2018-04-30T11:52:25.775Z,49.60
2018-04-30T11:54:57.914Z,49.30
2018-04-30T11:57:29.483Z,49.30
2018-04-30T12:00:00.873Z,49.20
2018-04-30T12:02:33.214Z,48.50
2018-04-30T12:05:04.981Z,48.40
2018-04-30T12:07:37.265Z,47.70
2018-04-30T12:10:09.577Z,47.80
2018-04-30T12:12:40.948Z,47.70
2018-04-30T12:15:12.486Z,47.40
2018-04-30T12:17:44.877Z,47.70
2018-04-30T12:20:16.535Z,47.70
2018-04-30T12:22:47.898Z,48.20
2018-04-30T12:25:19.475Z,48.20
2018-04-30T12:27:51.777Z,47.70
2018-04-30T12:30:23.761Z,48.00
2018-04-30T12:32:55.095Z,47.90
2018-04-30T12:35:26.720Z,47.80
2018-04-30T12:37:58.240Z,47.70
2018-04-30T12:40:29.841Z,48.00
2018-04-30T12:43:02.403Z,48.50
2018-04-30T12:45:34.170Z,48.50
2018-04-30T12:48:06.751Z,50.10
2018-04-30T12:50:38.219Z,50.00
2018-04-30T12:53:09.890Z,50.60
2018-04-30T12:55:42.374Z,52.90
2018-04-30T12:58:14.113Z,52.80
2018-04-30T13:00:45.697Z,50.80
2018-04-30T13:03:17.274Z,49.20
2018-04-30T13:05:48.938Z,46.00
2018-04-30T13:08:20.489Z,44.70
2018-04-30T13:10:52.310Z,43.50
2018-04-30T13:13:24.098Z,42.50
2018-04-30T13:15:56.522Z,43.80
2018-04-30T13:18:29.062Z,44.10
2018-04-30T13:21:00.444Z,44.10
2018-04-30T13:23:32.856Z,45.30
2018-04-30T13:26:03.961Z,45.30
2018-04-30T13:28:35.903Z,46.40
2018-04-30T13:31:07.588Z,46.40
2018-04-30T13:33:39.014Z,46.70
2018-04-30T13:36:11.161Z,46.70
2018-04-30T13:38:42.679Z,46.50
2018-04-30T13:41:14.157Z,46.90
2018-04-30T13:43:45.624Z,46.90
2018-04-30T13:46:17.106Z,47.20
2018-04-30T13:48:49.319Z,47.00
2018-04-30T13:51:20.739Z,46.90
2018-04-30T13:53:52.112Z,47.00
2018-04-30T13:56:23.459Z,46.00
2018-04-30T13:58:54.884Z,46.20
2018-04-30T14:01:27.493Z,47.00
2018-04-30T14:03:58.913Z,47.00
2018-04-30T14:06:35.808Z,47.50
2018-04-30T14:09:07.475Z,47.80
2018-04-30T14:11:39.013Z,48.30
2018-04-30T14:14:10.348Z,48.40
2018-04-30T14:16:42.526Z,48.60
2018-04-30T14:19:14.684Z,48.40
2018-04-30T14:21:47.930Z,48.30
2018-04-30T14:24:19.280Z,48.30
2018-04-30T14:26:51.618Z,48.30
2018-04-30T14:29:22.941Z,47.80
2018-04-30T14:31:55.074Z,48.10
2018-04-30T14:34:26.561Z,48.00
2018-04-30T14:36:57.892Z,48.00
2018-04-30T14:39:29.306Z,48.10
2018-04-30T14:42:00.550Z,48.10
2018-04-30T14:44:31.802Z,47.80
2018-04-30T14:47:04.111Z,47.20
2018-04-30T14:49:35.711Z,47.10
2018-04-30T14:52:07.160Z,46.90
2018-04-30T14:54:39.305Z,45.60
2018-04-30T14:57:12.147Z,45.50
2018-04-30T14:59:43.739Z,45.40
2018-04-30T15:02:15.275Z,45.40
2018-04-30T15:04:46.690Z,45.40
2018-04-30T15:07:18.106Z,45.60
2018-04-30T15:09:50.584Z,45.30
2018-04-30T15:12:22.268Z,45.20
2018-04-30T15:14:53.693Z,44.80
2018-04-30T15:17:25.154Z,45.00
2018-04-30T15:19:57.352Z,45.00
2018-04-30T15:22:28.697Z,44.80
2018-04-30T15:25:00.078Z,44.90
2018-04-30T15:27:31.528Z,45.20
2018-04-30T15:30:02.902Z,44.90
2018-04-30T15:32:34.276Z,44.70
2018-04-30T15:35:06.414Z,44.50
2018-04-30T15:37:39.260Z,44.50
2018-04-30T15:40:10.729Z,44.40
2018-04-30T15:42:42.091Z,44.30
2018-04-30T15:45:13.492Z,44.20
2018-04-30T15:47:45.685Z,43.40
2018-04-30T15:50:18.741Z,43.20
2018-04-30T15:52:50.091Z,43.10
2018-04-30T15:55:22.248Z,44.10
2018-04-30T15:57:53.688Z,43.40
2018-04-30T16:00:25.246Z,42.90
2018-04-30T16:02:56.647Z,42.90
2018-04-30T16:05:27.877Z,42.80
2018-04-30T16:08:00.148Z,42.60
2018-04-30T16:10:31.530Z,42.50
2018-04-30T16:13:03.184Z,42.60
2018-04-30T16:15:34.598Z,42.60
2018-04-30T16:18:05.910Z,42.30
2018-04-30T16:20:37.317Z,42.30
2018-04-30T16:23:08.705Z,42.10
2018-04-30T16:25:39.982Z,41.80
2018-04-30T16:28:11.355Z,41.40
2018-04-30T16:30:43.471Z,41.60
2018-04-30T16:33:14.837Z,41.50
2018-04-30T16:35:46.949Z,41.40
2018-04-30T16:38:19.085Z,41.20
2018-04-30T16:40:51.174Z,41.40
2018-04-30T16:43:23.302Z,41.40
2018-04-30T16:45:54.680Z,41.30
2018-04-30T16:48:25.874Z,41.40
2018-04-30T16:50:57.235Z,41.10
2018-04-30T16:53:28.586Z,41.20
2018-04-30T16:55:59.923Z,41.50
2018-04-30T16:58:31.357Z,41.40
2018-04-30T17:01:03.679Z,41.30
2018-04-30T17:03:35.049Z,41.20
2018-04-30T17:06:07.163Z,41.40
2018-04-30T17:08:38.594Z,41.30
2018-04-30T17:11:10.765Z,41.50
2018-04-30T17:13:42.191Z,41.40
2018-04-30T17:16:14.419Z,41.40
2018-04-30T17:18:47.495Z,41.50
2018-04-30T17:21:18.861Z,41.50
2018-04-30T17:23:50.212Z,42.40
2018-04-30T17:26:23.173Z,41.80
2018-04-30T17:28:54.525Z,41.80
2018-04-30T17:31:26.003Z,41.70
2018-04-30T17:33:57.360Z,41.70
2018-04-30T17:36:30.828Z,41.70
2018-04-30T17:39:02.632Z,41.60
2018-04-30T17:41:35.577Z,41.90
2018-04-30T17:44:06.927Z,41.90
2018-04-30T17:46:38.433Z,42.00
2018-04-30T17:49:10.568Z,42.30
2018-04-30T17:51:41.961Z,42.60
2018-04-30T17:54:13.650Z,42.30
2018-04-30T17:56:45.129Z,42.30
2018-04-30T17:59:16.652Z,42.20
2018-04-30T18:01:48.510Z,42.50
2018-04-30T18:04:20.783Z,42.20
2018-04-30T18:06:52.327Z,42.20
2018-04-30T18:09:23.839Z,42.10
2018-04-30T18:11:55.323Z,42.10
2018-04-30T18:14:26.740Z,42.10
2018-04-30T18:16:58.123Z,41.90
2018-04-30T18:19:29.560Z,41.80
2018-04-30T18:22:01.885Z,41.70
2018-04-30T18:24:33.285Z,41.60
2018-04-30T18:27:04.522Z,41.70
2018-04-30T18:29:36.709Z,41.90
2018-04-30T18:32:08.920Z,42.00
2018-04-30T18:34:40.352Z,41.80
2018-04-30T18:37:11.763Z,41.80
2018-04-30T18:39:43.163Z,41.10
2018-04-30T18:42:14.587Z,41.20
2018-04-30T18:44:45.934Z,41.30
2018-04-30T18:47:17.315Z,41.40
2018-04-30T18:49:48.692Z,41.60
2018-04-30T18:52:20.103Z,41.00
2018-04-30T18:54:51.635Z,40.90
2018-04-30T18:57:23.183Z,41.10
2018-04-30T18:59:54.767Z,41.20
2018-04-30T19:02:27.007Z,41.20
2018-04-30T19:04:59.127Z,41.10
2018-04-30T19:07:30.522Z,41.10
2018-04-30T19:10:01.909Z,40.80
2018-04-30T19:12:33.395Z,40.70
2018-04-30T19:15:04.832Z,41.10
2018-04-30T19:17:36.210Z,41.50
2018-04-30T19:20:07.333Z,41.40
2018-04-30T19:22:38.846Z,41.80
2018-04-30T19:25:10.207Z,41.70
2018-04-30T19:27:41.595Z,41.50
2018-04-30T19:30:13.049Z,41.50
2018-04-30T19:32:44.367Z,41.50
2018-04-30T19:35:15.821Z,41.50
2018-04-30T19:37:47.238Z,41.70
2018-04-30T19:40:19.023Z,42.00
2018-04-30T19:42:50.454Z,42.00
2018-04-30T19:45:21.852Z,42.10
2018-04-30T19:47:53.235Z,42.20
2018-04-30T19:50:24.613Z,42.50
2018-04-30T19:52:55.957Z,42.70
2018-04-30T19:55:27.677Z,43.00
2018-04-30T19:57:59.885Z,43.70
2018-04-30T20:00:32.011Z,44.30
2018-04-30T20:03:03.411Z,44.30
2018-04-30T20:05:34.800Z,44.30
2018-04-30T20:08:06.226Z,44.60
2018-04-30T20:10:37.754Z,44.70
2018-04-30T20:13:09.808Z,45.20
2018-04-30T20:15:41.982Z,45.20
2018-04-30T20:18:14.219Z,45.20
2018-04-30T20:20:45.568Z,45.20
2018-04-30T20:23:18.128Z,45.40
2018-04-30T20:25:49.952Z,45.40
2018-04-30T20:28:22.951Z,45.70
2018-04-30T20:30:55.389Z,45.70
2018-04-30T20:33:26.898Z,45.60
2018-04-30T20:35:58.068Z,45.90
2018-04-30T20:38:29.570Z,45.90
2018-04-30T20:41:01.761Z,46.30
2018-04-30T20:43:33.335Z,46.30
2018-04-30T20:46:04.644Z,46.50
2018-04-30T20:48:36.072Z,46.50
2018-04-30T20:51:07.803Z,46.80
2018-04-30T20:53:39.194Z,46.60
2018-04-30T20:56:11.346Z,46.90
2018-04-30T20:58:42.702Z,46.90
2018-04-30T21:01:15.610Z,46.60
2018-04-30T21:03:46.815Z,46.60
2018-04-30T21:06:18.274Z,46.50
2018-04-30T21:09:06.487Z,46.60
2018-04-30T21:11:37.872Z,46.80
2018-04-30T21:14:09.331Z,46.80
2018-04-30T21:16:40.541Z,46.90
2018-04-30T21:19:12.124Z,47.20
2018-04-30T21:21:43.742Z,47.40
2018-04-30T21:24:15.437Z,47.40
2018-04-30T21:26:46.718Z,47.40
2018-04-30T21:29:18.273Z,47.30
2018-04-30T21:31:49.764Z,47.60
2018-04-30T21:34:21.130Z,47.90
2018-04-30T21:36:52.513Z,47.70
2018-04-30T21:39:25.650Z,48.00
2018-04-30T21:41:57.297Z,48.00
2018-04-30T21:44:28.670Z,48.00
2018-04-30T21:47:00.057Z,48.00
2018-04-30T21:49:31.360Z,48.20
2018-04-30T21:52:03.465Z,48.20
2018-04-30T21:54:36.361Z,48.10
2018-04-30T21:57:07.718Z,48.10
2018-04-30T21:59:39.806Z,48.40
2018-04-30T22:02:11.178Z,48.40
2018-04-30T22:04:42.523Z,48.10
2018-04-30T22:07:14.636Z,48.40
2018-04-30T22:09:46.023Z,48.40
2018-04-30T22:12:17.590Z,48.10
2018-04-30T22:14:48.956Z,48.30
2018-04-30T22:17:20.311Z,48.30
2018-04-30T22:19:51.699Z,48.60
2018-04-30T22:22:23.070Z,48.40
2018-04-30T22:24:55.480Z,49.00
2018-04-30T22:27:26.942Z,48.40
2018-04-30T22:29:58.646Z,48.50
2018-04-30T22:32:30.739Z,49.10
2018-04-30T22:35:02.132Z,48.70
2018-04-30T22:37:33.734Z,48.70
2018-04-30T22:40:05.128Z,49.00
2018-04-30T22:42:36.484Z,49.00
2018-04-30T22:45:08.635Z,49.30
2018-04-30T22:47:39.984Z,49.30
2018-04-30T22:50:11.373Z,49.10
2018-04-30T22:52:43.567Z,49.20
2018-04-30T22:55:15.024Z,49.10
2018-04-30T22:57:46.487Z,49.10
2018-04-30T23:00:25.746Z,49.20
2018-04-30T23:02:57.617Z,49.40
2018-04-30T23:05:29.726Z,50.00
2018-04-30T23:08:01.381Z,49.50
2018-04-30T23:10:33.013Z,50.40
2018-04-30T23:13:04.466Z,49.60
2018-04-30T23:15:35.803Z,49.70
2018-04-30T23:18:07.556Z,49.80
2018-04-30T23:20:39.195Z,49.80
2018-04-30T23:23:10.607Z,49.90
2018-04-30T23:25:41.969Z,50.00
2018-04-30T23:28:14.086Z,50.20
2018-04-30T23:30:45.418Z,50.20
2018-04-30T23:33:16.969Z,50.30
2018-04-30T23:35:48.340Z,50.50
2018-04-30T23:38:19.897Z,50.50
2018-04-30T23:40:51.263Z,50.70
2018-04-30T23:43:22.608Z,50.50
2018-04-30T23:45:54.869Z,50.70
2018-04-30T23:48:27.137Z,50.90
2018-04-30T23:50:58.498Z,51.00
2018-04-30T23:53:30.818Z,51.00
2018-04-30T23:56:02.320Z,51.10
2018-04-30T23:58:34.421Z,51.30
